< < Back
Terminal Aerodrome Forecast


Current Version              Previous Versions:   1  2  3  4  5  6  7  8  9  

Terminal Aerodrome Forecast

238
FTUS42 KGSP 311321 AAA
TAFCLT
TAF AMD
KCLT 311321Z 3113/0112 01006KT P6SM SCT017
     FM311430 01006KT P6SM SCT060 BKN110
     FM010200 35003KT P6SM -RA OVC060
     FM010500 31008KT P6SM -RA OVC045
     FM010800 32009KT 6SM -RA OVC028=

Latest METAR

191
SAUS70 KWBC 311256
MTRCLT
METAR KCLT 311252Z 36008KT 10SM FEW015 07/03 A2997 RMK AO2 SLP149
T00720033


USA.gov is the U.S. government's official web portal to all federal, state and local government web resources and services.